createdAt,value
2023-12-09T00:02:12.631Z,18.08
2023-12-09T00:04:40.735Z,11.57
2023-12-09T00:07:08.134Z,18.55
2023-12-09T00:09:35.667Z,13.93
2023-12-09T00:12:03.418Z,18.83
2023-12-09T00:14:30.855Z,21.90
2023-12-09T00:17:00.324Z,16.13
2023-12-09T00:19:27.997Z,14.27
2023-12-09T00:21:55.438Z,16.48
2023-12-09T00:24:22.910Z,20.73
2023-12-09T00:26:50.935Z,14.98
2023-12-09T00:29:18.339Z,16.48
2023-12-09T00:31:45.753Z,14.25
2023-12-09T00:34:13.293Z,15.32
2023-12-09T00:36:40.772Z,22.55
2023-12-09T00:39:08.203Z,18.95
2023-12-09T00:41:35.838Z,17.95
2023-12-09T00:44:03.384Z,16.17
2023-12-09T00:46:30.786Z,17.52
2023-12-09T00:48:58.510Z,16.77
2023-12-09T00:51:26.138Z,18.35
2023-12-09T00:53:53.541Z,15.90
2023-12-09T00:56:33.427Z,16.67
2023-12-09T00:59:02.841Z,16.45
2023-12-09T01:01:30.445Z,12.20
2023-12-09T01:03:58.125Z,18.42
2023-12-09T01:06:25.788Z,15.20
2023-12-09T01:08:53.579Z,20.65
2023-12-09T01:11:21.010Z,26.25
2023-12-09T01:13:48.523Z,21.75
2023-12-09T01:16:16.105Z,15.75
2023-12-09T01:18:43.617Z,17.85
2023-12-09T01:21:11.113Z,16.20
2023-12-09T01:23:40.467Z,15.43
2023-12-09T01:26:10.165Z,10.90
2023-12-09T01:28:37.542Z,19.27
2023-12-09T01:31:05.254Z,14.73
2023-12-09T01:33:33.746Z,16.92
2023-12-09T01:36:01.284Z,19.98
2023-12-09T01:38:28.817Z,17.10
2023-12-09T01:40:56.637Z,20.48
2023-12-09T01:43:26.838Z,13.05
2023-12-09T01:45:56.347Z,20.98
2023-12-09T01:48:24.337Z,21.58
2023-12-09T01:50:52.103Z,12.68
2023-12-09T01:53:19.718Z,15.88
2023-12-09T01:55:47.083Z,12.80
2023-12-09T01:58:14.601Z,13.90
2023-12-09T02:00:42.177Z,15.85
2023-12-09T02:03:09.745Z,21.67
2023-12-09T02:05:37.199Z,16.38
2023-12-09T02:08:05.111Z,14.55
2023-12-09T02:10:32.621Z,15.27
2023-12-09T02:13:09.904Z,15.93
2023-12-09T02:15:40.363Z,16.10
2023-12-09T02:18:09.137Z,17.17
2023-12-09T02:20:36.706Z,15.45
2023-12-09T02:23:07.932Z,15.88
2023-12-09T02:25:35.718Z,16.52
2023-12-09T02:28:07.876Z,18.30
2023-12-09T02:30:46.357Z,20.20
2023-12-09T02:33:16.522Z,12.45
2023-12-09T02:35:45.598Z,17.67
2023-12-09T02:38:13.284Z,20.55
2023-12-09T02:40:41.162Z,14.73
2023-12-09T02:43:08.774Z,17.05
2023-12-09T02:45:36.132Z,17.40
2023-12-09T02:48:04.977Z,18.42
2023-12-09T02:50:32.857Z,24.58
2023-12-09T02:53:00.223Z,14.40
2023-12-09T02:55:27.764Z,11.13
2023-12-09T02:57:57.888Z,10.20
2023-12-09T03:00:25.719Z,12.95
2023-12-09T03:02:53.362Z,22.63
2023-12-09T03:05:20.975Z,17.02
2023-12-09T03:07:48.364Z,13.02
2023-12-09T03:10:15.792Z,17.33
2023-12-09T03:12:43.171Z,16.30
2023-12-09T03:15:10.907Z,20.58
2023-12-09T03:17:38.726Z,16.58
2023-12-09T03:20:10.042Z,17.15
2023-12-09T03:22:37.515Z,23.75
2023-12-09T03:25:05.268Z,16.05
2023-12-09T03:27:32.845Z,21.40
2023-12-09T03:30:00.473Z,15.23
2023-12-09T03:32:28.361Z,15.63
2023-12-09T03:34:55.884Z,16.73
2023-12-09T03:37:23.359Z,19.25
2023-12-09T03:39:50.810Z,16.15
2023-12-09T03:42:18.325Z,13.55
2023-12-09T03:44:45.692Z,13.07
2023-12-09T03:47:21.766Z,11.02
2023-12-09T03:49:53.486Z,13.50
2023-12-09T03:52:20.841Z,12.32
2023-12-09T03:54:48.330Z,12.15
2023-12-09T03:57:16.437Z,19.02
2023-12-09T03:59:43.918Z,16.15
2023-12-09T04:02:11.389Z,19.20
2023-12-09T04:04:42.562Z,11.43
2023-12-09T04:07:10.157Z,19.02
2023-12-09T04:09:38.163Z,13.55
2023-12-09T04:12:06.033Z,15.60
2023-12-09T04:14:33.552Z,19.55
2023-12-09T04:17:01.072Z,18.10
2023-12-09T04:19:29.374Z,17.13
2023-12-09T04:22:00.892Z,14.13
2023-12-09T04:24:28.503Z,22.25
2023-12-09T04:26:56.101Z,13.93
2023-12-09T04:29:23.489Z,20.23
2023-12-09T04:31:51.042Z,10.77
2023-12-09T04:34:18.469Z,14.40
2023-12-09T04:36:45.800Z,18.38
2023-12-09T04:39:13.345Z,15.55
2023-12-09T04:41:40.713Z,15.45
2023-12-09T04:44:08.104Z,12.63
2023-12-09T04:46:35.612Z,16.58
2023-12-09T04:49:03.319Z,15.50
2023-12-09T04:51:30.889Z,12.93
2023-12-09T04:53:58.510Z,14.68
2023-12-09T04:56:26.009Z,10.50
2023-12-09T04:58:53.499Z,17.33
2023-12-09T05:01:20.929Z,16.80
2023-12-09T05:03:48.606Z,13.00
2023-12-09T05:06:16.107Z,19.45
2023-12-09T05:08:43.798Z,20.25
2023-12-09T05:11:11.158Z,12.02
2023-12-09T05:13:38.861Z,16.75
2023-12-09T05:16:07.038Z,13.93
2023-12-09T05:18:35.937Z,20.08
2023-12-09T05:21:06.338Z,16.75
2023-12-09T05:23:34.434Z,17.40
2023-12-09T05:26:02.053Z,15.77
2023-12-09T05:28:29.674Z,14.77
2023-12-09T05:30:57.478Z,19.50
2023-12-09T05:33:25.149Z,24.92
2023-12-09T05:35:52.715Z,17.95
2023-12-09T05:38:20.473Z,17.67
2023-12-09T05:40:47.955Z,18.38
2023-12-09T05:43:15.275Z,19.67
2023-12-09T05:45:42.805Z,21.58
2023-12-09T05:48:10.509Z,17.60
2023-12-09T05:50:38.873Z,22.70
2023-12-09T05:53:06.418Z,17.98
2023-12-09T05:55:33.912Z,21.83
2023-12-09T05:58:01.387Z,20.50
2023-12-09T06:00:28.933Z,19.55
2023-12-09T06:02:56.485Z,23.98
2023-12-09T06:05:24.016Z,22.65
2023-12-09T06:07:51.520Z,17.50
2023-12-09T06:10:19.013Z,24.85
2023-12-09T06:12:46.499Z,17.35
2023-12-09T06:15:14.103Z,20.42
2023-12-09T06:17:41.861Z,17.25
2023-12-09T06:20:09.863Z,21.15
2023-12-09T06:22:37.360Z,18.92
2023-12-09T06:25:04.893Z,18.88
2023-12-09T06:27:32.351Z,21.83
2023-12-09T06:30:00.738Z,21.25
2023-12-09T06:32:28.513Z,21.67
2023-12-09T06:34:55.967Z,28.65
2023-12-09T06:37:23.452Z,29.38
2023-12-09T06:39:50.880Z,23.70
2023-12-09T06:42:18.403Z,24.48
2023-12-09T06:44:45.885Z,22.50
2023-12-09T06:47:13.332Z,28.83
2023-12-09T06:49:40.777Z,22.58
2023-12-09T06:52:08.289Z,26.30
2023-12-09T06:54:36.321Z,29.90
2023-12-09T06:57:03.953Z,21.45
2023-12-09T06:59:31.400Z,27.10
2023-12-09T07:01:59.023Z,32.53
2023-12-09T07:04:26.720Z,22.48
2023-12-09T07:06:54.392Z,27.63
2023-12-09T07:09:21.942Z,24.77
2023-12-09T07:12:01.319Z,26.38
2023-12-09T07:14:30.283Z,24.27
2023-12-09T07:16:57.635Z,25.38
2023-12-09T07:19:25.178Z,27.00
2023-12-09T07:21:52.721Z,27.33
2023-12-09T07:24:20.225Z,23.02
2023-12-09T07:26:47.599Z,25.75
2023-12-09T07:29:15.094Z,22.05
2023-12-09T07:31:42.886Z,23.13
2023-12-09T07:34:16.941Z,26.63
2023-12-09T07:36:44.711Z,27.88
2023-12-09T07:39:12.044Z,25.33
2023-12-09T07:41:39.762Z,23.02
2023-12-09T07:44:07.183Z,27.10
2023-12-09T07:46:34.602Z,31.90
2023-12-09T07:49:02.265Z,25.67
2023-12-09T07:51:30.117Z,25.15
2023-12-09T07:53:57.605Z,23.48
2023-12-09T07:56:25.103Z,20.23
2023-12-09T07:58:53.164Z,22.00
2023-12-09T08:01:20.574Z,21.23
2023-12-09T08:03:48.116Z,24.48
2023-12-09T08:06:15.706Z,21.92
2023-12-09T08:08:43.075Z,24.55
2023-12-09T08:11:10.622Z,22.42
2023-12-09T08:13:38.081Z,22.77
2023-12-09T08:16:05.706Z,19.80
2023-12-09T08:18:33.389Z,20.70
2023-12-09T08:21:01.077Z,26.38
2023-12-09T08:23:28.557Z,17.15
2023-12-09T08:25:56.348Z,23.17
2023-12-09T08:28:23.774Z,14.88
2023-12-09T08:30:52.174Z,19.73
2023-12-09T08:33:20.268Z,15.40
2023-12-09T08:35:47.911Z,14.88
2023-12-09T08:38:15.281Z,17.33
2023-12-09T08:40:42.814Z,18.73
2023-12-09T08:43:10.307Z,18.65
2023-12-09T08:45:37.824Z,19.70
2023-12-09T08:48:05.608Z,25.75
2023-12-09T08:50:33.265Z,17.10
2023-12-09T08:53:00.695Z,14.35
2023-12-09T08:55:28.437Z,11.25
2023-12-09T08:57:55.972Z,18.02
2023-12-09T09:00:27.193Z,17.88
2023-12-09T09:02:57.888Z,17.38
2023-12-09T09:05:25.448Z,17.48
2023-12-09T09:07:52.897Z,14.48
2023-12-09T09:10:20.517Z,17.90
2023-12-09T09:12:48.602Z,18.90
2023-12-09T09:15:17.672Z,17.92
2023-12-09T09:17:45.269Z,14.80
2023-12-09T09:20:12.797Z,10.85
2023-12-09T09:22:41.596Z,10.50
2023-12-09T09:25:10.748Z,17.23
2023-12-09T09:27:38.438Z,18.02
2023-12-09T09:30:06.312Z,18.48
2023-12-09T09:32:33.831Z,17.88
2023-12-09T09:35:01.563Z,15.82
2023-12-09T09:37:29.783Z,11.40
2023-12-09T09:39:57.348Z,15.45
2023-12-09T09:43:00.082Z,12.90
2023-12-09T09:45:32.735Z,13.30
2023-12-09T09:48:08.214Z,15.45
2023-12-09T09:50:41.407Z,12.93
2023-12-09T09:53:12.166Z,14.50
2023-12-09T09:55:43.030Z,14.07
2023-12-09T09:58:10.628Z,15.70
2023-12-09T10:00:38.193Z,13.20
2023-12-09T10:03:05.831Z,12.18
2023-12-09T10:05:33.277Z,11.30
2023-12-09T10:08:00.758Z,14.05
2023-12-09T10:10:28.936Z,11.82
2023-12-09T10:12:56.419Z,9.13
2023-12-09T10:15:23.828Z,8.93
2023-12-09T10:17:51.445Z,16.55
2023-12-09T10:20:18.814Z,13.63
2023-12-09T10:22:48.035Z,9.95
2023-12-09T10:25:22.662Z,9.85
2023-12-09T10:27:50.257Z,9.02
2023-12-09T10:30:21.645Z,11.38
2023-12-09T10:32:49.817Z,12.50
2023-12-09T10:35:18.379Z,13.82
2023-12-09T10:37:45.992Z,15.65
2023-12-09T10:40:14.742Z,6.97
2023-12-09T10:42:42.187Z,9.88
2023-12-09T10:45:09.841Z,15.23
2023-12-09T10:47:37.626Z,13.85
2023-12-09T10:50:05.745Z,11.43
2023-12-09T10:52:35.244Z,6.43
2023-12-09T10:55:03.984Z,5.88
2023-12-09T10:57:33.875Z,7.90
2023-12-09T11:00:02.520Z,5.75
2023-12-09T11:02:32.091Z,6.90
2023-12-09T11:04:59.655Z,11.35
2023-12-09T11:07:27.128Z,12.63
2023-12-09T11:09:54.637Z,7.97
2023-12-09T11:12:29.690Z,10.10
2023-12-09T11:14:57.933Z,5.97
2023-12-09T11:17:39.270Z,8.43
2023-12-09T11:20:18.168Z,9.18
2023-12-09T11:22:46.226Z,6.20
2023-12-09T11:25:21.102Z,9.52
2023-12-09T11:30:36.178Z,4.15
2023-12-09T11:33:04.662Z,7.30
2023-12-09T11:35:34.430Z,4.95
2023-12-09T11:38:02.425Z,7.53
2023-12-09T11:40:30.981Z,6.30
2023-12-09T11:42:59.092Z,9.93
2023-12-09T11:45:28.681Z,5.47
2023-12-09T11:47:58.046Z,5.93
2023-12-09T11:50:26.148Z,8.02
2023-12-09T11:52:53.679Z,8.52
2023-12-09T11:55:21.169Z,7.55
2023-12-09T11:57:49.053Z,6.82
2023-12-09T12:00:17.004Z,4.75
2023-12-09T12:02:44.537Z,9.32
2023-12-09T12:05:15.334Z,7.53
2023-12-09T12:07:42.892Z,9.82
2023-12-09T12:10:11.123Z,11.45
2023-12-09T12:12:38.667Z,8.63
2023-12-09T12:15:06.924Z,6.85
2023-12-09T12:17:41.353Z,4.65
2023-12-09T12:20:10.336Z,5.40
2023-12-09T12:22:37.770Z,16.13
2023-12-09T12:25:05.563Z,7.55
2023-12-09T12:27:37.747Z,11.65
2023-12-09T12:30:05.598Z,8.07
2023-12-09T12:32:37.361Z,10.52
2023-12-09T12:35:05.658Z,12.80
2023-12-09T12:37:33.260Z,12.55
2023-12-09T12:40:00.761Z,7.38
2023-12-09T12:42:28.752Z,10.05
2023-12-09T12:44:56.940Z,10.27
2023-12-09T12:47:24.418Z,7.45
2023-12-09T12:49:52.449Z,7.03
2023-12-09T12:52:20.055Z,6.93
2023-12-09T12:54:47.591Z,6.50
2023-12-09T12:57:15.151Z,3.35
2023-12-09T12:59:42.669Z,2.17
2023-12-09T13:02:10.112Z,4.72
2023-12-09T13:04:37.598Z,4.05
2023-12-09T13:07:05.534Z,3.00
2023-12-09T13:09:33.086Z,3.00
2023-12-09T13:12:00.684Z,4.75
2023-12-09T13:14:28.438Z,6.22
2023-12-09T13:16:55.879Z,3.67
2023-12-09T13:19:23.623Z,2.33
2023-12-09T13:21:51.161Z,6.35
2023-12-09T13:24:18.592Z,2.38
2023-12-09T13:26:46.186Z,2.92
2023-12-09T13:29:13.722Z,4.82
2023-12-09T13:31:41.883Z,11.32
2023-12-09T13:34:11.028Z,5.57
2023-12-09T13:36:41.420Z,2.17
2023-12-09T13:39:13.178Z,4.22
2023-12-09T13:41:41.331Z,6.05
2023-12-09T13:44:08.862Z,4.82
2023-12-09T13:46:37.196Z,2.78
2023-12-09T13:49:04.869Z,6.10
2023-12-09T13:51:32.368Z,2.05
2023-12-09T13:53:59.807Z,4.15
2023-12-09T13:56:27.494Z,6.03
2023-12-09T13:58:54.950Z,3.47
2023-12-09T14:01:22.738Z,3.90
2023-12-09T14:03:50.709Z,2.95
2023-12-09T14:06:18.611Z,3.53
2023-12-09T14:08:46.130Z,5.85
2023-12-09T14:11:15.832Z,4.13
2023-12-09T14:13:43.319Z,4.60
2023-12-09T14:16:10.920Z,3.25
2023-12-09T14:18:39.325Z,2.85
2023-12-09T14:21:08.418Z,6.13
2023-12-09T14:23:35.860Z,7.50
2023-12-09T14:26:04.781Z,3.10
2023-12-09T14:28:32.193Z,3.92
2023-12-09T14:30:59.703Z,7.00
2023-12-09T14:33:27.579Z,2.95
2023-12-09T14:35:55.181Z,1.90
2023-12-09T14:38:22.576Z,2.92
2023-12-09T14:40:50.248Z,2.15
2023-12-09T14:43:17.639Z,3.28
2023-12-09T14:45:45.149Z,2.42
2023-12-09T14:48:13.629Z,4.43
2023-12-09T14:50:41.191Z,6.32
2023-12-09T14:53:12.491Z,4.65
2023-12-09T14:55:40.256Z,3.55
2023-12-09T14:58:07.754Z,2.50
2023-12-09T15:00:35.604Z,6.65
2023-12-09T15:03:03.372Z,4.07
2023-12-09T15:05:31.142Z,4.85
2023-12-09T15:07:58.692Z,4.53
2023-12-09T15:10:26.368Z,7.40
2023-12-09T15:12:54.350Z,3.35
2023-12-09T15:15:22.294Z,5.25
2023-12-09T15:17:50.056Z,5.90
2023-12-09T15:20:17.793Z,2.72
2023-12-09T15:22:48.036Z,2.95
2023-12-09T15:25:19.416Z,4.40
2023-12-09T15:27:47.474Z,6.85
2023-12-09T15:30:15.497Z,3.30
2023-12-09T15:32:45.620Z,3.97
2023-12-09T15:35:13.290Z,3.78
2023-12-09T15:37:41.149Z,3.50
2023-12-09T15:40:12.492Z,4.00
2023-12-09T15:42:40.135Z,6.97
2023-12-09T15:45:07.890Z,4.70
2023-12-09T15:47:35.801Z,3.97
2023-12-09T15:50:04.502Z,5.45
2023-12-09T15:52:32.211Z,8.90
2023-12-09T15:54:59.888Z,6.75
2023-12-09T15:57:27.313Z,11.52
2023-12-09T15:59:54.942Z,10.25
2023-12-09T16:02:22.685Z,13.55
2023-12-09T16:04:50.109Z,11.60
2023-12-09T16:07:17.736Z,14.23
2023-12-09T16:09:51.935Z,13.35
2023-12-09T16:12:21.438Z,17.15
2023-12-09T16:14:53.131Z,15.65
2023-12-09T16:17:20.820Z,24.10
2023-12-09T16:19:48.487Z,18.92
2023-12-09T16:22:17.762Z,25.30
2023-12-09T16:24:49.189Z,19.48
2023-12-09T16:27:17.400Z,26.70
2023-12-09T16:29:45.188Z,25.45
2023-12-09T16:32:12.679Z,39.20
2023-12-09T16:34:40.365Z,17.45
2023-12-09T16:37:08.187Z,20.80
2023-12-09T16:39:35.599Z,19.77
2023-12-09T16:42:03.813Z,20.52
2023-12-09T16:44:31.526Z,22.08
2023-12-09T16:46:59.103Z,24.65
2023-12-09T16:49:26.692Z,22.42
2023-12-09T16:51:54.247Z,23.90
2023-12-09T16:54:25.167Z,29.35
2023-12-09T16:56:52.862Z,18.67
2023-12-09T16:59:20.510Z,26.17
2023-12-09T17:01:48.304Z,21.95
2023-12-09T17:04:16.422Z,27.83
2023-12-09T17:06:44.972Z,24.85
2023-12-09T17:09:12.498Z,38.67
2023-12-09T17:11:40.072Z,28.83
2023-12-09T17:14:07.551Z,21.98
2023-12-09T17:16:35.036Z,30.83
2023-12-09T17:19:02.547Z,32.38
2023-12-09T17:21:30.179Z,29.92
2023-12-09T17:23:57.599Z,27.52
2023-12-09T17:26:25.434Z,23.38
2023-12-09T17:28:53.522Z,25.05
2023-12-09T17:31:21.068Z,27.70
2023-12-09T17:33:48.569Z,26.80
2023-12-09T17:36:17.349Z,27.92
2023-12-09T17:38:44.742Z,23.73
2023-12-09T17:41:12.250Z,18.42
2023-12-09T17:43:39.925Z,29.05
2023-12-09T17:46:07.828Z,23.27
2023-12-09T17:48:36.341Z,25.15
2023-12-09T17:51:04.058Z,23.23
2023-12-09T17:53:31.523Z,25.92
2023-12-09T17:55:58.984Z,27.85
2023-12-09T17:58:26.724Z,18.83
2023-12-09T18:00:54.696Z,26.75
2023-12-09T18:03:22.350Z,25.40
2023-12-09T18:05:51.982Z,25.80
2023-12-09T18:08:22.815Z,31.52
2023-12-09T18:10:50.359Z,26.25
2023-12-09T18:13:17.829Z,27.67
2023-12-09T18:15:45.890Z,38.10
2023-12-09T18:18:13.873Z,27.20
2023-12-09T18:20:41.534Z,24.45
2023-12-09T18:23:09.083Z,23.00
2023-12-09T18:25:36.781Z,27.38
2023-12-09T18:28:04.354Z,32.50
2023-12-09T18:30:32.550Z,29.17
2023-12-09T18:33:00.111Z,23.50
2023-12-09T18:35:27.931Z,27.83
2023-12-09T18:37:55.830Z,26.88
2023-12-09T18:40:24.231Z,26.85
2023-12-09T18:42:52.516Z,27.58
2023-12-09T18:45:20.304Z,22.20
2023-12-09T18:47:47.959Z,30.35
2023-12-09T18:50:15.527Z,24.45
2023-12-09T18:52:43.265Z,25.58
2023-12-09T18:55:11.024Z,26.10
2023-12-09T18:57:38.779Z,24.73
2023-12-09T19:00:07.542Z,30.63
2023-12-09T19:02:35.521Z,19.55
2023-12-09T19:05:03.456Z,25.35
2023-12-09T19:07:31.509Z,24.50
2023-12-09T19:10:00.453Z,21.15
2023-12-09T19:12:29.549Z,32.92
2023-12-09T19:14:57.430Z,23.52
2023-12-09T19:17:24.841Z,24.42
2023-12-09T19:19:52.436Z,37.20
2023-12-09T19:22:19.927Z,27.45
2023-12-09T19:24:47.822Z,26.92
2023-12-09T19:27:15.791Z,26.25
2023-12-09T19:29:44.364Z,27.67
2023-12-09T19:32:13.489Z,28.30
2023-12-09T19:34:41.569Z,28.85
2023-12-09T19:37:09.557Z,34.25
2023-12-09T19:39:36.977Z,29.00
2023-12-09T19:42:04.691Z,30.55
2023-12-09T19:44:32.310Z,32.17
2023-12-09T19:46:59.950Z,28.05
2023-12-09T19:49:28.215Z,23.48
2023-12-09T19:51:55.843Z,29.42
2023-12-09T19:54:24.768Z,25.17
2023-12-09T19:56:53.444Z,30.20
2023-12-09T19:59:20.959Z,24.73
2023-12-09T20:01:48.517Z,26.48
2023-12-09T20:04:17.222Z,23.33
2023-12-09T20:06:45.117Z,29.15
2023-12-09T20:09:12.684Z,31.58
2023-12-09T20:11:40.244Z,33.22
2023-12-09T20:14:07.837Z,30.85
2023-12-09T20:16:35.323Z,30.20
2023-12-09T20:19:06.682Z,30.10
2023-12-09T20:21:36.352Z,26.92
2023-12-09T20:24:03.978Z,23.20
2023-12-09T20:26:32.759Z,28.95
2023-12-09T20:29:00.473Z,18.25
2023-12-09T20:31:27.831Z,29.80
2023-12-09T20:33:55.292Z,26.77
2023-12-09T20:36:23.135Z,31.65
2023-12-09T20:38:50.554Z,30.33
2023-12-09T20:41:18.097Z,34.35
2023-12-09T20:43:45.616Z,32.75
2023-12-09T20:46:15.158Z,24.13
2023-12-09T20:48:42.700Z,22.77
2023-12-09T20:51:10.237Z,28.13
2023-12-09T20:53:37.745Z,17.70
2023-12-09T20:56:06.022Z,24.42
2023-12-09T20:58:33.692Z,26.60
2023-12-09T21:01:02.639Z,25.60
2023-12-09T21:03:30.602Z,17.45
2023-12-09T21:05:58.323Z,28.50
2023-12-09T21:08:25.781Z,26.20
2023-12-09T21:10:53.217Z,25.85
2023-12-09T21:13:20.776Z,24.95
2023-12-09T21:15:48.344Z,28.05
2023-12-09T21:18:16.018Z,31.65
2023-12-09T21:20:43.723Z,27.85
2023-12-09T21:23:11.138Z,33.35
2023-12-09T21:25:38.557Z,21.45
2023-12-09T21:28:08.645Z,19.50
2023-12-09T21:30:36.635Z,30.10
2023-12-09T21:33:04.893Z,28.23
2023-12-09T21:35:32.645Z,27.25
2023-12-09T21:38:00.130Z,21.33
2023-12-09T21:40:27.619Z,16.27
2023-12-09T21:42:55.640Z,22.95
2023-12-09T21:45:23.183Z,25.67
2023-12-09T21:47:55.122Z,19.25
2023-12-09T21:50:24.011Z,36.08
2023-12-09T21:52:51.649Z,27.73
2023-12-09T21:55:20.988Z,23.80
2023-12-09T21:57:48.621Z,22.33
2023-12-09T22:00:16.411Z,22.10
2023-12-09T22:02:44.455Z,40.67
2023-12-09T22:05:12.218Z,26.38
2023-12-09T22:07:39.714Z,33.22
2023-12-09T22:10:07.515Z,27.98
2023-12-09T22:12:37.351Z,30.58
2023-12-09T22:15:06.383Z,23.75
2023-12-09T22:17:33.828Z,35.55
2023-12-09T22:20:01.486Z,21.63
2023-12-09T22:22:34.702Z,28.00
2023-12-09T22:25:06.182Z,39.20
2023-12-09T22:27:33.708Z,26.83
2023-12-09T22:30:01.269Z,30.13
2023-12-09T22:32:28.810Z,29.02
2023-12-09T22:34:56.583Z,29.65
2023-12-09T22:37:24.115Z,29.67
2023-12-09T22:39:51.750Z,28.13
2023-12-09T22:42:19.208Z,27.08
2023-12-09T22:44:46.677Z,24.42
2023-12-09T22:47:14.714Z,30.73
2023-12-09T22:49:42.397Z,28.48
2023-12-09T22:52:09.912Z,22.25
2023-12-09T22:54:37.548Z,25.92
2023-12-09T22:57:09.851Z,32.60
2023-12-09T22:59:37.426Z,28.70
2023-12-09T23:02:06.488Z,22.27
2023-12-09T23:04:34.015Z,32.78
2023-12-09T23:07:01.516Z,25.85
2023-12-09T23:09:29.106Z,22.98
2023-12-09T23:11:56.558Z,25.90
2023-12-09T23:14:24.128Z,22.52
2023-12-09T23:16:51.784Z,25.55
2023-12-09T23:19:19.362Z,28.48
2023-12-09T23:21:46.904Z,25.63
2023-12-09T23:24:14.648Z,25.33
2023-12-09T23:26:42.188Z,26.00
2023-12-09T23:29:10.121Z,19.15
2023-12-09T23:31:41.721Z,18.30
2023-12-09T23:34:10.726Z,21.33
2023-12-09T23:36:38.488Z,23.13
2023-12-09T23:39:06.198Z,18.85
2023-12-09T23:41:33.611Z,26.02
2023-12-09T23:44:01.129Z,16.38
2023-12-09T23:46:28.569Z,26.75
2023-12-09T23:48:57.206Z,25.17
2023-12-09T23:51:25.118Z,25.17
2023-12-09T23:53:52.570Z,26.42
2023-12-09T23:56:24.426Z,23.58
2023-12-09T23:58:52.099Z,23.55
